Time;durP1;ratioP1;P1;durP2;ratioP2;P2;SDS_P1;SDS_P2;PMS_P1;PMS_P2;Temp;Humidity;BMP_temperature;BMP_pressure;BME280_temperature;BME280_humidity;BME280_pressure;Samples;Min_cycle;Max_cycle;Signal;HPM_P1;HPM_P2
2022/07/31 00:02:13;;;;;;;4.68;3.45;;;;;;;18.53;87.25;96538.13;5036447;28;20221;-73
2022/07/31 00:04:40;;;;;;;5.93;3.70;;;;;;;18.41;87.46;96534.53;5035991;28;20202;-73
2022/07/31 00:07:06;;;;;;;5.95;3.80;;;;;;;18.24;87.53;96542.47;5037265;28;20201;-73
2022/07/31 00:09:33;;;;;;;5.55;3.60;;;;;;;18.21;87.40;96535.72;5037039;28;20212;-72
2022/07/31 00:11:59;;;;;;;5.05;3.60;;;;;;;18.13;87.97;96535.16;5036412;28;20224;-72
2022/07/31 00:14:26;;;;;;;4.97;3.67;;;;;;;18.14;88.38;96536.75;5036018;28;20228;-73
2022/07/31 00:16:52;;;;;;;4.70;3.40;;;;;;;17.97;90.13;96533.81;5036961;28;20201;-73
2022/07/31 00:19:20;;;;;;;9.10;4.22;;;;;;;18.11;90.45;96526.53;5036865;28;20212;-73
2022/07/31 00:21:47;;;;;;;6.15;3.60;;;;;;;17.84;91.32;96531.19;5036579;28;20732;-73
2022/07/31 00:24:14;;;;;;;6.88;4.03;;;;;;;18.04;91.58;96531.09;5035973;28;20204;-72
2022/07/31 00:26:40;;;;;;;5.28;3.70;;;;;;;17.97;89.51;96525.81;5036596;28;20202;-73
2022/07/31 00:29:07;;;;;;;5.43;3.92;;;;;;;17.86;90.19;96523.03;5036969;28;20205;-73
2022/07/31 00:31:33;;;;;;;8.20;4.18;;;;;;;18.07;88.99;96525.31;5036670;28;20213;-73
2022/07/31 00:34:00;;;;;;;4.65;3.88;;;;;;;18.10;88.44;96532.88;5035558;28;20599;-72
2022/07/31 00:36:28;;;;;;;6.13;3.60;;;;;;;18.10;89.03;96531.06;5036577;28;20225;-73
2022/07/31 00:38:54;;;;;;;6.68;3.78;;;;;;;17.73;90.05;96523.06;5033020;28;20201;-72
2022/07/31 00:41:21;;;;;;;4.78;3.60;;;;;;;17.82;90.60;96519.16;5036822;28;20198;-72
2022/07/31 00:43:47;;;;;;;5.95;3.92;;;;;;;17.91;89.65;96528.53;5036328;28;20221;-72
2022/07/31 00:46:14;;;;;;;9.65;3.60;;;;;;;17.82;88.77;96524.47;5036713;28;20208;-72
2022/07/31 00:48:40;;;;;;;5.82;3.70;;;;;;;17.89;88.96;96533.25;5038783;28;20197;-72
2022/07/31 00:51:06;;;;;;;11.27;4.30;;;;;;;17.79;88.95;96524.88;5040622;28;20197;-72
2022/07/31 00:53:34;;;;;;;5.88;4.13;;;;;;;17.74;90.12;96525.53;5039046;28;20239;-72
2022/07/31 00:56:01;;;;;;;8.32;3.83;;;;;;;17.45;91.25;96525.28;5040136;28;20205;-72
2022/07/31 00:58:27;;;;;;;9.38;4.10;;;;;;;17.50;93.39;96524.63;5040389;28;20296;-72
2022/07/31 01:00:54;;;;;;;6.03;3.78;;;;;;;17.70;91.13;96528.84;5040357;28;20201;-72
2022/07/31 01:03:20;;;;;;;5.13;3.85;;;;;;;17.70;89.57;96528.03;5039795;28;20213;-72
2022/07/31 01:05:47;;;;;;;6.90;3.85;;;;;;;17.74;88.50;96519.38;5040139;28;20204;-72
2022/07/31 01:08:13;;;;;;;7.50;3.70;;;;;;;17.71;88.98;96519.81;5040306;28;21261;-72
2022/07/31 01:10:52;;;;;;;5.20;3.83;;;;;;;17.75;89.68;96524.50;5040208;28;20197;-72
2022/07/31 01:13:26;;;;;;;7.72;4.13;;;;;;;17.70;90.52;96520.84;5039262;28;20217;-72
2022/07/31 01:15:54;;;;;;;6.70;4.20;;;;;;;17.41;92.50;96517.91;5039973;28;20463;-72
2022/07/31 01:18:22;;;;;;;6.95;4.50;;;;;;;17.37;93.27;96517.50;5040120;28;20873;-72
2022/07/31 01:20:50;;;;;;;5.82;4.20;;;;;;;17.40;94.81;96511.78;5039501;28;20220;-72
2022/07/31 01:23:31;;;;;;;6.93;4.90;;;;;;;17.28;94.51;96518.78;5038499;28;20224;-72
2022/07/31 01:26:07;;;;;;;5.82;4.40;;;;;;;17.59;95.19;96513.53;5039735;28;20205;-72
2022/07/31 01:29:00;;;;;;;6.50;4.53;;;;;;;17.61;91.13;96511.47;5039358;28;20211;-72
2022/07/31 01:31:33;;;;;;;6.45;4.22;;;;;;;17.39;92.10;96518.13;5040626;28;20201;-72
2022/07/31 01:34:05;;;;;;;8.73;4.35;;;;;;;17.41;91.21;96516.09;5039061;28;20240;-72
2022/07/31 01:36:34;;;;;;;7.15;4.55;;;;;;;17.45;91.20;96511.97;5039077;28;20205;-72
2022/07/31 01:39:02;;;;;;;8.77;4.85;;;;;;;17.49;92.34;96523.84;5037063;28;20616;-72
2022/07/31 01:41:33;;;;;;;6.50;4.38;;;;;;;17.63;91.48;96520.06;5039171;28;20217;-72
2022/07/31 01:44:04;;;;;;;7.78;4.22;;;;;;;17.46;91.97;96518.09;5038718;28;20232;-72
2022/07/31 01:46:33;;;;;;;5.70;4.72;;;;;;;17.31;95.92;96518.38;5039210;28;20201;-72
2022/07/31 01:49:01;;;;;;;5.20;3.95;;;;;;;17.30;92.83;96513.28;5039049;28;20216;-72
2022/07/31 01:51:30;;;;;;;5.63;4.40;;;;;;;17.34;91.52;96520.63;5038970;28;20205;-72
2022/07/31 01:53:59;;;;;;;6.40;4.10;;;;;;;17.26;89.66;96514.69;5038491;28;20225;-73
2022/07/31 01:56:27;;;;;;;4.55;3.60;;;;;;;17.12;89.99;96523.75;5039390;28;20205;-73
2022/07/31 01:58:55;;;;;;;5.45;4.03;;;;;;;17.20;90.62;96508.34;5038938;28;20259;-74
2022/07/31 02:01:25;;;;;;;6.75;3.60;;;;;;;17.30;91.96;96516.75;5039049;28;20198;-73
2022/07/31 02:03:53;;;;;;;6.30;4.22;;;;;;;17.23;90.99;96523.09;5038461;28;20312;-73
2022/07/31 02:06:22;;;;;;;6.03;3.92;;;;;;;17.36;91.79;96525.72;5039044;28;20197;-73
2022/07/31 02:08:51;;;;;;;6.57;4.40;;;;;;;17.27;91.90;96525.16;5038900;28;20197;-73
2022/07/31 02:11:20;;;;;;;6.38;4.15;;;;;;;17.28;93.45;96525.97;5038848;28;20212;-74
2022/07/31 02:13:48;;;;;;;6.28;4.40;;;;;;;17.16;93.41;96514.31;5038252;28;20236;-73
2022/07/31 02:16:16;;;;;;;7.15;4.43;;;;;;;17.22;91.51;96519.63;5035154;28;20201;-73
2022/07/31 02:18:46;;;;;;;5.20;4.05;;;;;;;17.32;90.86;96512.03;5038721;28;20204;-73
2022/07/31 02:21:13;;;;;;;4.82;4.07;;;;;;;17.27;91.43;96519.00;5038619;28;20965;-74
2022/07/31 02:23:40;;;;;;;4.93;4.00;;;;;;;17.23;91.43;96515.09;5037762;28;20227;-73
2022/07/31 02:26:07;;;;;;;7.45;4.50;;;;;;;17.21;91.03;96517.19;5038711;28;20586;-74
2022/07/31 02:28:36;;;;;;;6.57;4.05;;;;;;;17.19;90.81;96519.22;5038049;28;20212;-74
2022/07/31 02:31:04;;;;;;;6.03;4.32;;;;;;;17.22;91.39;96516.97;5038796;28;20202;-73
2022/07/31 02:33:31;;;;;;;7.00;4.22;;;;;;;17.26;91.50;96520.03;5037841;28;20228;-74
2022/07/31 02:36:01;;;;;;;7.68;3.78;;;;;;;17.25;92.05;96518.41;5038582;28;20201;-73
2022/07/31 02:38:28;;;;;;;6.60;3.92;;;;;;;17.11;94.39;96516.78;5039104;28;20204;-74
2022/07/31 02:40:58;;;;;;;6.50;4.30;;;;;;;17.31;94.06;96522.88;5035461;28;20582;-73
2022/07/31 02:43:26;;;;;;;6.72;4.32;;;;;;;17.14;93.83;96522.53;5037149;28;20221;-73
2022/07/31 02:45:53;;;;;;;6.80;4.13;;;;;;;17.20;94.49;96521.66;5038811;28;20252;-73
2022/07/31 02:48:20;;;;;;;6.72;4.75;;;;;;;17.25;96.38;96527.22;5038438;28;20202;-73
2022/07/31 02:50:47;;;;;;;5.72;4.07;;;;;;;17.24;95.33;96528.22;5038366;28;20557;-74
2022/07/31 02:53:15;;;;;;;9.27;4.25;;;;;;;17.44;95.39;96526.31;5037082;28;20244;-74
2022/07/31 02:55:44;;;;;;;5.63;4.28;;;;;;;17.44;95.81;96520.19;5038092;28;20197;-74
2022/07/31 02:58:10;;;;;;;6.18;4.25;;;;;;;17.40;96.85;96522.44;5038106;28;20232;-73
2022/07/31 03:00:37;;;;;;;7.43;4.72;;;;;;;17.37;96.89;96520.19;5038408;28;20212;-74
2022/07/31 03:03:04;;;;;;;6.82;4.53;;;;;;;17.41;96.95;96516.09;5037133;28;20307;-74
2022/07/31 03:05:31;;;;;;;7.40;4.97;;;;;;;17.54;96.97;96516.03;5037899;28;20762;-74
2022/07/31 03:07:58;;;;;;;6.55;4.68;;;;;;;17.54;96.63;96513.34;5038195;28;21187;-73
2022/07/31 03:10:27;;;;;;;8.07;4.70;;;;;;;17.68;97.32;96509.59;5036972;28;20205;-73
2022/07/31 03:12:55;;;;;;;7.20;4.53;;;;;;;17.75;97.75;96513.03;5037225;28;20225;-73
2022/07/31 03:15:25;;;;;;;8.10;4.82;;;;;;;17.88;98.42;96513.78;5037408;28;21150;-73
2022/07/31 03:17:53;;;;;;;9.45;5.35;;;;;;;17.82;98.64;96516.47;5037919;28;20201;-74
2022/07/31 03:20:20;;;;;;;8.15;5.10;;;;;;;17.77;98.84;96514.44;5037551;28;20673;-74
2022/07/31 03:22:47;;;;;;;7.57;5.00;;;;;;;17.85;100.00;96516.03;5036743;28;20792;-73
2022/07/31 03:25:14;;;;;;;6.78;4.68;;;;;;;17.86;100.00;96510.50;5037528;28;20224;-72
2022/07/31 03:27:41;;;;;;;7.72;5.05;;;;;;;17.98;100.00;96503.44;5037444;28;20217;-72
2022/07/31 03:30:17;;;;;;;6.75;5.30;;;;;;;17.64;100.00;96508.34;5037587;28;20201;-72
2022/07/31 03:32:43;;;;;;;6.72;5.22;;;;;;;17.86;100.00;96507.03;5036956;28;20220;-72
2022/07/31 03:35:10;;;;;;;7.93;5.57;;;;;;;17.86;100.00;96499.03;5037403;28;20213;-73
2022/07/31 03:37:37;;;;;;;9.93;5.00;;;;;;;17.88;100.00;96499.59;5036901;28;20205;-72
2022/07/31 03:40:04;;;;;;;7.22;5.70;;;;;;;17.94;100.00;96504.09;5035102;28;20709;-72
2022/07/31 03:42:31;;;;;;;8.52;5.70;;;;;;;18.00;100.00;96498.72;5036676;28;20244;-72
2022/07/31 03:44:59;;;;;;;10.10;5.35;;;;;;;18.05;100.00;96500.72;5037567;28;20221;-72
2022/07/31 03:47:26;;;;;;;6.57;4.90;;;;;;;18.01;100.00;96505.69;5037284;28;20197;-72
2022/07/31 03:49:53;;;;;;;6.70;5.40;;;;;;;17.92;100.00;96500.81;5037144;28;20204;-73
2022/07/31 03:52:20;;;;;;;7.80;5.15;;;;;;;17.64;100.00;96500.38;5036812;28;20224;-73
2022/07/31 03:54:47;;;;;;;6.38;4.80;;;;;;;17.97;100.00;96509.81;5037082;28;20201;-72
2022/07/31 03:57:15;;;;;;;10.90;5.40;;;;;;;18.03;100.00;96508.94;5036702;28;20998;-73
2022/07/31 03:59:42;;;;;;;7.15;5.22;;;;;;;18.04;100.00;96509.78;5037234;28;20200;-73
2022/07/31 04:02:10;;;;;;;7.40;5.05;;;;;;;18.33;98.34;96514.47;5037820;28;20217;-73
2022/07/31 04:04:37;;;;;;;7.43;5.28;;;;;;;18.15;98.62;96503.72;5035794;28;20256;-73
2022/07/31 04:07:04;;;;;;;8.13;5.50;;;;;;;18.05;97.71;96511.38;5036481;28;20674;-73
2022/07/31 04:09:30;;;;;;;7.88;5.68;;;;;;;17.64;99.60;96512.88;5037542;28;20288;-73
2022/07/31 04:11:57;;;;;;;7.82;5.32;;;;;;;17.40;100.00;96519.78;5037207;28;20213;-73
2022/07/31 04:14:23;;;;;;;7.80;5.47;;;;;;;17.78;100.00;96515.25;5036295;28;20212;-74
2022/07/31 04:16:50;;;;;;;7.82;5.60;;;;;;;17.67;100.00;96507.13;5037227;28;20206;-74
2022/07/31 04:19:18;;;;;;;8.27;5.32;;;;;;;17.88;100.00;96512.94;5036850;28;20201;-74
2022/07/31 04:21:45;;;;;;;9.93;5.90;;;;;;;17.88;100.00;96513.78;5036088;28;20294;-74
2022/07/31 04:24:15;;;;;;;8.63;5.50;;;;;;;17.73;99.05;96509.75;5036032;28;20204;-74
2022/07/31 04:26:42;;;;;;;6.57;4.50;;;;;;;17.95;99.50;96516.41;5037079;28;20197;-73
2022/07/31 04:29:08;;;;;;;6.18;4.47;;;;;;;17.89;99.99;96515.38;5036785;28;20201;-73
2022/07/31 04:31:35;;;;;;;6.95;5.38;;;;;;;18.07;99.39;96526.13;5036826;28;20205;-73
2022/07/31 04:34:02;;;;;;;9.10;5.03;;;;;;;18.01;99.47;96521.69;5036241;28;20197;-74
2022/07/31 04:36:30;;;;;;;9.60;5.40;;;;;;;18.09;99.85;96524.09;5036585;28;20228;-74
2022/07/31 04:38:56;;;;;;;8.52;5.32;;;;;;;18.09;98.93;96525.94;5034989;28;20363;-73
2022/07/31 04:41:23;;;;;;;7.35;5.18;;;;;;;18.05;99.38;96527.38;5036849;28;20205;-73
2022/07/31 04:43:49;;;;;;;8.10;5.05;;;;;;;18.16;98.63;96524.03;5036515;28;21020;-73
2022/07/31 04:46:16;;;;;;;7.53;5.30;;;;;;;18.21;98.31;96521.56;5036398;28;20221;-73
2022/07/31 04:48:42;;;;;;;9.55;5.22;;;;;;;18.21;99.35;96522.38;5036685;28;20697;-74
2022/07/31 04:51:09;;;;;;;5.80;4.80;;;;;;;18.26;99.53;96521.72;5036990;28;20197;-74
2022/07/31 04:53:36;;;;;;;7.53;5.03;;;;;;;18.38;99.39;96524.28;5035971;28;20225;-74
2022/07/31 04:58:47;;;;;;;5.72;4.68;;;;;;;18.14;96.19;96529.59;5036489;28;20231;-73
2022/07/31 05:01:14;;;;;;;6.95;5.13;;;;;;;18.22;97.35;96531.22;5036943;28;20209;-74
2022/07/31 05:03:40;;;;;;;8.07;4.85;;;;;;;18.27;96.56;96542.06;5036215;28;20649;-73
2022/07/31 05:06:10;;;;;;;6.55;4.60;;;;;;;18.21;97.87;96537.56;5036947;28;20217;-74
2022/07/31 05:08:38;;;;;;;6.40;4.70;;;;;;;18.15;96.44;96541.06;5035745;28;20232;-74
2022/07/31 05:11:22;;;;;;;8.25;4.97;;;;;;;18.13;96.91;96535.16;5036272;28;20197;-74
2022/07/31 05:13:49;;;;;;;7.30;4.82;;;;;;;18.39;96.31;96535.78;5034539;28;20228;-73
2022/07/31 05:16:16;;;;;;;6.50;4.88;;;;;;;18.39;94.52;96536.59;5036014;28;20361;-73
2022/07/31 05:18:44;;;;;;;8.85;4.70;;;;;;;18.52;94.84;96530.31;5036227;28;20208;-73
2022/07/31 05:21:10;;;;;;;8.02;5.00;;;;;;;18.68;95.48;96530.59;5035231;28;20216;-73
2022/07/31 05:23:38;;;;;;;12.27;5.18;;;;;;;18.77;94.06;96533.81;5034806;28;20225;-73
2022/07/31 05:26:05;;;;;;;8.68;5.45;;;;;;;18.60;93.84;96528.19;5036058;28;20788;-73
2022/07/31 05:28:31;;;;;;;8.75;5.05;;;;;;;18.67;94.49;96528.97;5035498;28;20678;-73
2022/07/31 05:30:58;;;;;;;6.88;4.75;;;;;;;18.81;94.66;96529.66;5035260;28;20205;-73
2022/07/31 05:33:25;;;;;;;7.72;5.03;;;;;;;18.76;93.63;96535.66;5034913;28;20216;-73
2022/07/31 05:35:51;;;;;;;6.57;4.82;;;;;;;18.72;93.00;96531.78;5039886;28;20202;-73
2022/07/31 05:38:18;;;;;;;7.68;4.78;;;;;;;18.58;95.48;96534.78;5039011;28;20205;-73
2022/07/31 05:40:45;;;;;;;10.07;4.93;;;;;;;18.85;92.43;96545.03;5038072;28;20212;-73
2022/07/31 05:43:12;;;;;;;5.60;4.55;;;;;;;18.64;92.72;96537.41;5039035;28;20220;-73
2022/07/31 05:45:38;;;;;;;9.82;4.82;;;;;;;18.49;94.04;96536.91;5039783;28;20828;-73
2022/07/31 05:48:05;;;;;;;7.55;4.88;;;;;;;18.69;93.50;96539.44;5039900;28;20696;-77
2022/07/31 05:50:32;;;;;;;8.95;4.22;;;;;;;18.67;92.59;96542.31;5039203;28;20213;-75
2022/07/31 05:52:59;;;;;;;6.82;4.68;;;;;;;18.65;91.98;96549.72;5038492;28;20217;-75
2022/07/31 05:55:26;;;;;;;7.15;5.00;;;;;;;18.70;92.26;96546.38;5039376;28;20193;-75
2022/07/31 05:57:53;;;;;;;6.05;4.68;;;;;;;18.59;93.34;96542.56;5039178;28;20680;-73
2022/07/31 06:00:20;;;;;;;5.75;4.45;;;;;;;18.61;92.78;96545.03;5038850;28;20201;-73
2022/07/31 06:02:47;;;;;;;7.07;4.72;;;;;;;18.89;91.66;96551.56;5038453;28;20278;-74
2022/07/31 06:05:14;;;;;;;9.23;5.20;;;;;;;18.99;90.82;96550.00;5038969;28;20236;-73
2022/07/31 06:07:40;;;;;;;6.07;4.78;;;;;;;18.98;90.58;96547.56;5038638;28;20807;-73
2022/07/31 06:10:07;;;;;;;7.15;4.90;;;;;;;19.48;89.16;96543.75;5039222;28;20320;-73
2022/07/31 06:12:34;;;;;;;6.55;4.47;;;;;;;19.66;89.53;96539.16;5038117;28;20222;-73
2022/07/31 06:15:01;;;;;;;8.38;4.60;;;;;;;20.09;87.48;96539.84;5038655;28;20204;-74
2022/07/31 06:17:28;;;;;;;5.22;3.88;;;;;;;20.17;86.69;96540.31;5038696;28;20206;-74
2022/07/31 06:19:54;;;;;;;7.85;4.82;;;;;;;20.28;85.07;96536.88;5038716;28;20585;-74
2022/07/31 06:22:21;;;;;;;7.57;5.15;;;;;;;20.13;83.58;96541.03;5038136;28;20233;-74
2022/07/31 06:24:47;;;;;;;5.95;4.38;;;;;;;20.40;84.00;96540.38;5038101;28;20209;-74
2022/07/31 06:27:14;;;;;;;9.00;4.63;;;;;;;20.28;83.95;96542.22;5038406;28;20212;-74
2022/07/31 06:29:40;;;;;;;6.93;4.07;;;;;;;20.53;84.31;96541.00;5038189;28;21164;-74
2022/07/31 06:32:08;;;;;;;6.90;4.60;;;;;;;20.39;83.27;96541.41;5037622;28;20217;-74
2022/07/31 06:34:36;;;;;;;7.50;4.88;;;;;;;20.30;83.83;96546.31;5036392;28;20205;-73
2022/07/31 06:37:02;;;;;;;6.32;4.70;;;;;;;20.28;85.01;96553.72;5038746;28;20212;-73
2022/07/31 06:39:29;;;;;;;7.70;4.53;;;;;;;20.40;84.18;96549.25;5035854;28;20267;-73
2022/07/31 06:41:55;;;;;;;7.80;4.78;;;;;;;20.70;82.85;96547.28;5038387;28;20221;-74
2022/07/31 06:44:22;;;;;;;8.13;4.53;;;;;;;20.81;82.35;96548.38;5037619;28;20208;-74
2022/07/31 06:46:49;;;;;;;6.55;4.75;;;;;;;20.77;80.49;96545.34;5037877;28;20221;-74
2022/07/31 06:49:17;;;;;;;5.57;4.15;;;;;;;21.00;80.67;96543.50;5037844;28;20205;-74
2022/07/31 06:51:43;;;;;;;7.63;5.00;;;;;;;20.85;80.46;96551.16;5037081;28;20204;-74
2022/07/31 06:54:11;;;;;;;5.60;4.57;;;;;;;21.27;79.58;96543.78;5036832;28;20677;-74
2022/07/31 06:56:39;;;;;;;7.57;4.93;;;;;;;21.42;77.86;96544.94;5037034;28;20204;-73
2022/07/31 06:59:07;;;;;;;8.82;5.05;;;;;;;21.53;77.93;96544.94;5037930;28;20200;-74
2022/07/31 07:01:34;;;;;;;5.70;3.58;;;;;;;21.94;77.04;96546.56;5037742;28;20194;-73
2022/07/31 07:04:01;;;;;;;6.45;3.65;;;;;;;21.92;76.34;96544.13;5037232;28;20216;-73
2022/07/31 07:06:29;;;;;;;7.65;4.55;;;;;;;21.94;76.29;96542.00;5037603;28;20217;-73
2022/07/31 07:08:55;;;;;;;7.15;4.38;;;;;;;21.95;75.32;96540.16;5037772;28;21038;-73
2022/07/31 07:11:22;;;;;;;7.53;5.13;;;;;;;21.98;73.70;96548.50;5037279;28;20662;-73
2022/07/31 07:13:49;;;;;;;8.35;4.60;;;;;;;22.18;74.59;96538.97;5036949;28;20236;-73
2022/07/31 07:16:16;;;;;;;5.93;3.80;;;;;;;22.24;74.41;96542.56;5037817;28;20574;-73
2022/07/31 07:18:43;;;;;;;6.63;4.47;;;;;;;22.32;74.42;96540.31;5037569;28;20200;-73
2022/07/31 07:21:09;;;;;;;7.30;5.10;;;;;;;22.33;71.73;96536.59;5037520;28;20215;-73
2022/07/31 07:23:37;;;;;;;6.72;4.93;;;;;;;22.24;73.49;96537.22;5036584;28;20232;-73
2022/07/31 07:26:03;;;;;;;26.70;7.25;;;;;;;22.35;72.85;96533.66;5037279;28;20217;-73
2022/07/31 07:28:30;;;;;;;18.80;7.22;;;;;;;22.46;71.57;96536.28;5037719;28;20218;-73
2022/07/31 07:30:56;;;;;;;33.67;10.23;;;;;;;22.80;72.75;96532.53;5036969;28;20201;-73
2022/07/31 07:33:23;;;;;;;11.43;5.32;;;;;;;22.53;72.68;96534.25;5036946;28;20224;-73
2022/07/31 07:35:49;;;;;;;12.63;5.65;;;;;;;22.89;71.31;96526.50;5037692;28;20219;-73
2022/07/31 07:38:16;;;;;;;11.70;5.45;;;;;;;22.95;71.80;96524.69;5036348;28;20197;-73
2022/07/31 07:40:44;;;;;;;12.00;4.13;;;;;;;22.93;72.09;96516.88;5034712;28;20665;-73
2022/07/31 07:43:11;;;;;;;7.28;4.22;;;;;;;22.92;72.17;96525.19;5037336;28;21336;-73
2022/07/31 07:45:38;;;;;;;7.63;4.13;;;;;;;23.07;71.96;96528.16;5036784;28;20225;-73
2022/07/31 07:48:05;;;;;;;5.03;3.97;;;;;;;22.98;69.24;96529.59;5036457;28;20772;-73
2022/07/31 07:50:32;;;;;;;6.97;4.10;;;;;;;23.05;68.58;96522.19;5036641;28;20575;-73
2022/07/31 07:52:59;;;;;;;6.22;4.13;;;;;;;23.26;68.63;96521.44;5036426;28;20225;-73
2022/07/31 07:55:25;;;;;;;13.48;4.43;;;;;;;23.54;69.39;96524.75;5035937;28;20201;-73
2022/07/31 07:57:53;;;;;;;8.15;4.20;;;;;;;23.99;68.06;96513.47;5036029;28;20201;-73
2022/07/31 08:00:20;;;;;;;5.50;3.35;;;;;;;23.71;63.46;96515.56;5036491;28;20204;-73
2022/07/31 08:02:48;;;;;;;5.68;3.40;;;;;;;24.04;65.34;96504.63;5035367;28;20217;-73
2022/07/31 08:05:15;;;;;;;7.88;3.17;;;;;;;24.36;65.10;96513.56;5036942;28;20201;-74
2022/07/31 08:07:42;;;;;;;6.03;2.78;;;;;;;24.14;62.27;96512.81;5036395;28;20204;-73
2022/07/31 08:10:09;;;;;;;5.00;3.47;;;;;;;24.66;63.87;96509.28;5036649;28;20292;-73
2022/07/31 08:12:37;;;;;;;5.63;3.80;;;;;;;24.92;62.80;96503.81;5035883;28;20659;-74
2022/07/31 08:15:06;;;;;;;4.82;3.35;;;;;;;25.41;59.89;96511.44;5036924;28;20197;-73
2022/07/31 08:17:32;;;;;;;3.42;3.13;;;;;;;25.24;60.73;96504.56;5036453;28;20223;-73
2022/07/31 08:19:59;;;;;;;4.15;3.00;;;;;;;25.07;58.76;96509.34;5036725;28;20220;-74
2022/07/31 08:22:25;;;;;;;3.88;3.10;;;;;;;25.00;58.40;96511.44;5035655;28;20221;-73
2022/07/31 08:24:52;;;;;;;4.25;3.20;;;;;;;24.77;58.57;96511.81;5036178;28;20201;-73
2022/07/31 08:27:25;;;;;;;5.63;3.35;;;;;;;24.70;58.93;96513.88;5036254;28;20224;-73
2022/07/31 08:29:53;;;;;;;3.75;3.00;;;;;;;24.53;61.46;96516.97;5036463;28;20211;-73
2022/07/31 08:32:21;;;;;;;5.43;2.97;;;;;;;24.48;61.21;96511.53;5035852;28;20221;-72
2022/07/31 08:34:47;;;;;;;4.05;2.90;;;;;;;24.70;61.45;96510.41;5036509;28;20205;-74
2022/07/31 08:37:18;;;;;;;7.63;2.70;;;;;;;24.64;60.60;96506.84;5035562;28;20204;-73
2022/07/31 08:39:45;;;;;;;3.38;2.60;;;;;;;24.56;59.87;96504.59;5033030;28;20240;-74
2022/07/31 08:42:13;;;;;;;5.03;2.92;;;;;;;24.44;59.52;96515.81;5036108;28;20259;-73
2022/07/31 08:44:40;;;;;;;6.10;2.75;;;;;;;24.56;59.42;96517.28;5034882;28;20201;-73
2022/07/31 08:47:07;;;;;;;5.53;3.05;;;;;;;24.70;59.92;96513.09;5035254;28;20788;-72
2022/07/31 08:49:39;;;;;;;5.13;3.17;;;;;;;24.94;60.07;96517.84;5035696;28;20295;-73
2022/07/31 08:52:08;;;;;;;3.25;2.70;;;;;;;25.08;60.70;96513.66;5034947;28;20249;-74
2022/07/31 08:54:36;;;;;;;4.80;2.53;;;;;;;25.21;60.07;96513.19;5035449;28;20205;-72
2022/07/31 08:57:03;;;;;;;4.90;2.78;;;;;;;25.26;61.00;96510.53;5036574;28;20200;-72
2022/07/31 08:59:29;;;;;;;6.15;3.10;;;;;;;24.96;58.99;96509.50;5035683;28;20206;-74
2022/07/31 09:01:57;;;;;;;3.22;2.67;;;;;;;25.09;59.26;96514.47;5035285;28;20235;-74
2022/07/31 09:04:23;;;;;;;5.55;2.05;;;;;;;25.29;60.68;96510.00;5034862;28;20212;-72
2022/07/31 09:06:52;;;;;;;4.82;2.65;;;;;;;25.55;60.31;96509.88;5035812;28;20232;-73
2022/07/31 09:09:18;;;;;;;5.38;2.60;;;;;;;25.55;60.20;96515.28;5037221;28;20193;-74
2022/07/31 09:11:47;;;;;;;4.15;2.80;;;;;;;25.49;58.40;96515.50;5039336;28;20224;-73
2022/07/31 09:14:14;;;;;;;4.68;2.50;;;;;;;25.75;57.41;96509.16;5038867;28;20197;-73
2022/07/31 09:16:45;;;;;;;3.28;2.42;;;;;;;25.85;59.04;96515.41;5039507;28;20306;-73
2022/07/31 09:19:13;;;;;;;2.70;2.28;;;;;;;25.76;54.10;96516.19;5039051;28;20205;-75
2022/07/31 09:21:40;;;;;;;3.13;2.50;;;;;;;25.77;54.96;96512.44;5039525;28;20311;-72
2022/07/31 09:24:09;;;;;;;2.65;2.33;;;;;;;25.95;52.04;96507.34;5038739;28;20204;-74
2022/07/31 09:26:36;;;;;;;4.38;2.22;;;;;;;26.14;50.76;96509.28;5038074;28;20229;-74
2022/07/31 09:29:07;;;;;;;4.55;2.42;;;;;;;26.50;51.43;96509.09;5039156;28;20204;-74
2022/07/31 09:31:34;;;;;;;3.28;2.30;;;;;;;26.49;47.38;96512.88;5039062;28;20614;-72
2022/07/31 09:34:01;;;;;;;4.63;1.90;;;;;;;25.68;47.67;96513.97;5038010;28;20573;-73
2022/07/31 09:36:28;;;;;;;3.83;1.73;;;;;;;26.30;47.15;96502.00;5039109;28;20198;-72
2022/07/31 09:38:56;;;;;;;2.13;1.70;;;;;;;26.48;47.08;96505.06;5036324;28;21240;-74
2022/07/31 09:41:24;;;;;;;3.42;1.92;;;;;;;26.62;44.59;96506.16;5038684;28;20885;-73
2022/07/31 09:43:54;;;;;;;4.43;1.92;;;;;;;26.57;45.22;96506.94;5038121;28;20596;-73
2022/07/31 09:46:21;;;;;;;2.90;2.08;;;;;;;26.88;46.29;96505.03;5037612;28;20283;-74
2022/07/31 09:48:51;;;;;;;2.15;1.88;;;;;;;26.95;45.82;96500.16;5039187;28;20399;-73
2022/07/31 09:51:18;;;;;;;2.38;1.90;;;;;;;26.67;43.73;96503.44;5038907;28;20197;-74
2022/07/31 09:53:46;;;;;;;6.60;2.08;;;;;;;26.70;44.09;96497.47;5038575;28;20250;-72
2022/07/31 09:56:14;;;;;;;2.38;1.90;;;;;;;26.87;43.42;96500.72;5038798;28;20209;-73
2022/07/31 09:58:43;;;;;;;6.22;2.20;;;;;;;27.17;46.28;96501.53;5038729;28;20197;-72
2022/07/31 10:01:11;;;;;;;6.50;2.47;;;;;;;26.96;44.96;96508.06;5039254;28;20204;-72
2022/07/31 10:03:39;;;;;;;3.45;2.20;;;;;;;27.05;44.41;96509.13;5036688;28;20225;-74
2022/07/31 10:06:08;;;;;;;2.55;2.10;;;;;;;26.82;45.23;96504.25;5038808;28;20202;-73
2022/07/31 10:08:36;;;;;;;3.15;2.17;;;;;;;27.00;45.93;96503.72;5039005;28;20201;-73
2022/07/31 10:11:04;;;;;;;4.93;2.40;;;;;;;26.93;46.39;96496.94;5040071;28;20216;-72
2022/07/31 10:13:33;;;;;;;3.47;2.15;;;;;;;27.12;45.94;96496.13;5037215;28;20209;-74
2022/07/31 10:16:03;;;;;;;2.63;2.30;;;;;;;27.45;47.19;96496.28;5038369;28;20201;-73
2022/07/31 10:18:34;;;;;;;2.63;2.40;;;;;;;27.31;46.21;96495.25;5037991;28;20205;-73
2022/07/31 10:21:04;;;;;;;4.30;2.10;;;;;;;27.91;45.28;96486.94;5037661;28;20764;-72
2022/07/31 10:23:34;;;;;;;4.43;2.25;;;;;;;27.89;42.82;96489.09;5035752;28;20221;-72
2022/07/31 10:26:02;;;;;;;4.18;2.30;;;;;;;28.18;43.96;96484.63;5038479;28;20201;-72
2022/07/31 10:28:29;;;;;;;2.75;2.30;;;;;;;28.17;41.39;96485.72;5038075;28;20278;-74
2022/07/31 10:30:56;;;;;;;2.92;2.25;;;;;;;27.95;44.18;96477.16;5038293;28;20205;-73
2022/07/31 10:33:25;;;;;;;3.40;1.92;;;;;;;28.49;43.85;96478.72;5037469;28;20224;-72
2022/07/31 10:35:57;;;;;;;4.05;2.33;;;;;;;28.49;43.77;96476.81;5038621;28;20353;-73
2022/07/31 10:38:30;;;;;;;4.68;2.20;;;;;;;28.63;43.13;96480.50;5038593;28;20193;-74
2022/07/31 10:41:02;;;;;;;4.38;2.10;;;;;;;28.56;42.35;96480.00;5035475;28;20294;-73
2022/07/31 10:43:36;;;;;;;2.53;1.73;;;;;;;28.04;40.41;96470.88;5037043;28;20251;-72
2022/07/31 10:46:03;;;;;;;4.13;2.00;;;;;;;27.94;42.30;96476.34;5037709;28;20220;-72
2022/07/31 10:48:30;;;;;;;4.55;2.42;;;;;;;28.17;41.79;96469.44;5037262;28;20217;-74
2022/07/31 10:51:01;;;;;;;4.32;2.05;;;;;;;28.21;46.20;96465.09;5038079;28;21138;-73
2022/07/31 10:53:28;;;;;;;4.13;2.03;;;;;;;27.59;40.77;96475.69;5037147;28;20228;-73
2022/07/31 10:56:00;;;;;;;3.53;1.80;;;;;;;27.79;38.99;96470.19;5037696;28;20210;-72
2022/07/31 10:58:28;;;;;;;3.72;2.05;;;;;;;27.62;41.73;96469.72;5038025;28;20314;-73
2022/07/31 11:01:05;;;;;;;4.45;2.10;;;;;;;27.68;41.60;96481.38;5037640;28;20208;-74
2022/07/31 11:03:39;;;;;;;3.28;2.10;;;;;;;27.91;42.73;96465.25;5036246;28;20232;-73
2022/07/31 11:06:06;;;;;;;4.03;1.70;;;;;;;27.32;41.34;96469.81;5037415;28;20204;-74
2022/07/31 11:08:41;;;;;;;2.80;2.00;;;;;;;27.46;41.59;96465.44;5036464;28;20460;-74
2022/07/31 11:11:09;;;;;;;5.60;2.00;;;;;;;27.77;41.80;96450.69;5037518;28;20204;-74
2022/07/31 11:13:45;;;;;;;3.60;1.90;;;;;;;27.88;39.80;96460.41;5036836;28;20221;-72
2022/07/31 11:16:12;;;;;;;3.70;1.80;;;;;;;27.70;40.50;96451.00;5038313;28;20573;-73
2022/07/31 11:18:40;;;;;;;1.92;1.63;;;;;;;27.68;42.19;96451.56;5036257;28;20291;-74
2022/07/31 11:21:09;;;;;;;2.47;1.60;;;;;;;28.06;42.02;96459.75;5036488;28;20242;-73
2022/07/31 11:23:36;;;;;;;3.88;1.90;;;;;;;27.82;40.98;96456.88;5036949;28;20225;-73
2022/07/31 11:26:05;;;;;;;2.22;1.73;;;;;;;28.11;42.14;96455.09;5036915;28;20974;-73
2022/07/31 11:28:33;;;;;;;3.00;2.00;;;;;;;27.61;40.91;96451.88;5036191;28;20225;-72
2022/07/31 11:31:01;;;;;;;5.38;1.80;;;;;;;27.97;39.08;96450.59;5036634;28;20233;-73
2022/07/31 11:33:33;;;;;;;1.50;1.35;;;;;;;28.47;39.50;96441.03;5036076;28;20221;-73
2022/07/31 11:36:08;;;;;;;2.92;1.60;;;;;;;28.86;37.91;96447.25;5036202;28;20204;-72
2022/07/31 11:38:35;;;;;;;2.55;1.50;;;;;;;29.17;38.21;96443.13;5036644;28;20193;-74